Disclaimer

Please do not use the information listed here in-flight or in-navigation, as they are not provided to us by the airports but are provided by volunteers, so they might be outdated.

Search


Regions


Airport information page

Radio informations:
Tower (TWR) - 124.9 MHz
Ground (GND) - 121.7 MHz
Clearance delivery - 121.7 MHz
Automatic Terminal Information Service (ATIS) - 113.0 MHz
Approach/Departure (APP/DEP) - 118.4 MHz

Airport informations:
Latitude: 16° 53' 09.00" S
Longitude: 145° 45' 19.00" E
Elevation: 10 feet - 3 meters
Operating hours: N/A
Operating agency: Civil government, landing fees and diplomatic clearance may be required
Timezone: UTC+10
Fuel: Jet A1, without icing nhibitor.

100/130 MIL Spec, low lead, aviation gasoline (BLUE)

Runway information:
12/30 - 3035 x 60 feet< - >925 x 18 meters
15/33 - 10489 x 148 feet< - >3197 x 45 meters

Recent METARs:
YBCS 141600Z 16007KT 140V200 9999 FEW025 24/19 Q1012
YBCS 141600Z 16007KT 140V200 9999 FEW025 24/19 Q1012
YBCS 141630Z 17008KT 9999 FEW025 24/19 Q1012 NOSIG

Airport on the map: